Coopers Mills, Maine
Current Conditions -  °F | °C
As of 7:39 AM on Friday 24 Oct 2014 (Local Time) from KAUG Reporting Station
Overcast Overcast  
Wind Chill: 39°   Ceiling: 1000
Heat Index: 45°   Visibility: 9mi
Dew Point: 44°   Wind: 13mph
Humidity: 97%   Direction: 10°N
Pressure: 29.69"   Gusts: NA
Location:  44.26°N, 69.55°W
Report Text: KAUG 241139Z AUTO 01011KT 9SM OVC010 07/07 A2969 RMK AO2 RAB00E29 CIG 007V012 P0000 T00720067
Loading
Personal Weather Stations






























Interactive Weather Map
Tropical Storm Tracking
New forecast layout! Learn more

10-Day Weather Forecast

Advertisements
Track Severe Weather on mobile